createdAt,value
2022-08-04T00:00:57.583Z,19.9
2022-08-04T00:01:57.655Z,19.9
2022-08-04T00:02:57.600Z,19.9
2022-08-04T00:03:57.703Z,19.9
2022-08-04T00:04:57.590Z,19.9
2022-08-04T00:05:57.576Z,19.9
2022-08-04T00:06:57.597Z,19.9
2022-08-04T00:07:57.594Z,19.9
2022-08-04T00:08:57.599Z,19.8
2022-08-04T00:09:57.568Z,19.8
2022-08-04T00:10:57.890Z,19.8
2022-08-04T00:11:58.046Z,19.8
2022-08-04T00:12:58.446Z,19.8
2022-08-04T00:14:02.500Z,19.8
2022-08-04T00:14:59.296Z,19.8
2022-08-04T00:15:58.282Z,19.7
2022-08-04T00:16:57.588Z,19.7
2022-08-04T00:17:57.603Z,19.7
2022-08-04T00:18:57.593Z,19.7
2022-08-04T00:19:57.593Z,19.7
2022-08-04T00:20:57.594Z,19.7
2022-08-04T00:21:57.587Z,19.7
2022-08-04T00:22:57.613Z,19.7
2022-08-04T00:24:11.182Z,19.7
2022-08-04T00:24:57.622Z,19.7
2022-08-04T00:25:57.596Z,19.7
2022-08-04T00:26:57.591Z,19.5
2022-08-04T00:27:57.582Z,19.5
2022-08-04T00:28:57.598Z,19.7
2022-08-04T00:29:57.644Z,19.5
2022-08-04T00:30:57.604Z,19.5
2022-08-04T00:31:57.911Z,19.5
2022-08-04T00:32:57.590Z,19.5
2022-08-04T00:33:57.672Z,19.5
2022-08-04T00:34:57.682Z,19.5
2022-08-04T00:35:57.668Z,19.5
2022-08-04T00:36:57.566Z,19.5
2022-08-04T00:37:57.710Z,19.5
2022-08-04T00:38:57.712Z,19.5
2022-08-04T00:39:57.781Z,19.4
2022-08-04T00:40:57.702Z,19.5
2022-08-04T00:41:57.970Z,19.4
2022-08-04T00:42:59.592Z,19.4
2022-08-04T00:43:57.595Z,19.4
2022-08-04T00:44:58.291Z,19.4
2022-08-04T00:46:09.490Z,19.4
2022-08-04T00:46:57.673Z,19.4
2022-08-04T00:47:57.578Z,19.4
2022-08-04T00:48:57.594Z,19.4
2022-08-04T00:49:57.596Z,19.4
2022-08-04T00:50:57.593Z,19.4
2022-08-04T00:52:31.165Z,19.4
2022-08-04T00:52:57.870Z,19.4
2022-08-04T00:53:57.662Z,19.4
2022-08-04T00:54:58.287Z,19.4
2022-08-04T00:55:58.356Z,19.4
2022-08-04T00:56:57.557Z,19.4
2022-08-04T00:57:57.848Z,19.4
2022-08-04T00:58:57.564Z,19.4
2022-08-04T00:59:57.590Z,19.4
2022-08-04T01:00:57.890Z,19.3
2022-08-04T01:01:57.552Z,19.3
2022-08-04T01:02:57.693Z,19.3
2022-08-04T01:03:57.563Z,19.3
2022-08-04T01:04:57.686Z,19.3
2022-08-04T01:05:58.157Z,19.3
2022-08-04T01:06:57.578Z,19.3
2022-08-04T01:07:57.751Z,19.3
2022-08-04T01:08:57.614Z,19.3
2022-08-04T01:09:57.673Z,19.3
2022-08-04T01:10:57.578Z,19.2
2022-08-04T01:11:58.005Z,19.2
2022-08-04T01:12:57.600Z,19.2
2022-08-04T01:13:57.786Z,19.2
2022-08-04T01:14:57.960Z,19.2
2022-08-04T01:16:00.282Z,19.1
2022-08-04T01:16:57.634Z,19.2
2022-08-04T01:17:57.603Z,19.1
2022-08-04T01:18:57.589Z,19.1
2022-08-04T01:19:57.603Z,19.1
2022-08-04T01:20:57.595Z,19.1
2022-08-04T01:21:57.628Z,19.1
2022-08-04T01:22:57.633Z,19.1
2022-08-04T01:23:57.611Z,19.1
2022-08-04T01:24:57.608Z,19.1
2022-08-04T01:25:57.608Z,19.1
2022-08-04T01:26:58.549Z,19
2022-08-04T01:27:57.611Z,19
2022-08-04T01:28:57.594Z,19
2022-08-04T01:29:57.592Z,19
2022-08-04T01:30:57.618Z,18.9
2022-08-04T01:31:57.601Z,18.9
2022-08-04T01:32:57.612Z,18.9
2022-08-04T01:33:58.738Z,18.9
2022-08-04T01:34:57.621Z,18.9
2022-08-04T01:35:57.660Z,18.9
2022-08-04T01:36:57.731Z,18.9
2022-08-04T01:37:57.606Z,18.9
2022-08-04T01:38:57.653Z,18.8
2022-08-04T01:39:57.590Z,18.8
2022-08-04T01:40:57.585Z,18.8
2022-08-04T01:41:58.089Z,18.8
2022-08-04T01:42:57.601Z,18.8
2022-08-04T01:43:57.602Z,18.7
2022-08-04T01:44:57.614Z,18.8
2022-08-04T01:45:57.607Z,18.7
2022-08-04T01:46:57.625Z,18.7
2022-08-04T01:47:57.591Z,18.7
2022-08-04T01:48:57.618Z,18.7
2022-08-04T01:49:57.608Z,18.7
2022-08-04T01:50:57.615Z,18.7
2022-08-04T01:51:57.607Z,18.7
2022-08-04T01:52:57.596Z,18.7
2022-08-04T01:53:57.606Z,18.7
2022-08-04T01:54:57.606Z,18.7
2022-08-04T01:55:57.615Z,18.7
2022-08-04T01:56:57.602Z,18.7
2022-08-04T01:57:57.634Z,18.7
2022-08-04T01:58:57.764Z,18.7
2022-08-04T01:59:57.591Z,18.7
2022-08-04T02:00:57.663Z,18.7
2022-08-04T02:01:57.672Z,18.7
2022-08-04T02:02:57.652Z,18.7
2022-08-04T02:04:18.015Z,18.7
2022-08-04T02:04:57.613Z,18.7
2022-08-04T02:06:02.297Z,18.7
2022-08-04T02:06:57.611Z,18.7
2022-08-04T02:07:57.724Z,18.7
2022-08-04T02:08:57.600Z,18.7
2022-08-04T02:09:57.606Z,18.7
2022-08-04T02:10:57.593Z,18.7
2022-08-04T02:11:57.593Z,18.7
2022-08-04T02:12:57.600Z,18.7
2022-08-04T02:13:57.607Z,18.7
2022-08-04T02:14:57.611Z,18.5
2022-08-04T02:15:57.592Z,18.5
2022-08-04T02:16:57.599Z,18.5
2022-08-04T02:17:57.601Z,18.5
2022-08-04T02:18:57.827Z,18.5
2022-08-04T02:19:57.572Z,18.5
2022-08-04T02:20:57.589Z,18.5
2022-08-04T02:21:57.586Z,18.5
2022-08-04T02:22:57.592Z,18.4
2022-08-04T02:23:57.586Z,18.4
2022-08-04T02:24:57.599Z,18.4
2022-08-04T02:25:57.615Z,18.4
2022-08-04T02:26:57.592Z,18.4
2022-08-04T02:27:59.539Z,18.4
2022-08-04T02:28:57.735Z,18.4
2022-08-04T02:29:57.680Z,18.3
2022-08-04T02:30:57.569Z,18.3
2022-08-04T02:31:57.608Z,18.3
2022-08-04T02:32:57.874Z,18.3
2022-08-04T02:33:57.651Z,18.3
2022-08-04T02:34:57.887Z,18.3
2022-08-04T02:35:57.598Z,18.3
2022-08-04T02:36:57.585Z,18.2
2022-08-04T02:37:57.608Z,18.2
2022-08-04T02:38:57.675Z,18.2
2022-08-04T02:39:57.598Z,18.2
2022-08-04T02:40:59.104Z,18.2
2022-08-04T02:41:57.601Z,18.2
2022-08-04T02:42:57.597Z,18.1
2022-08-04T02:43:57.598Z,18.1
2022-08-04T02:44:57.594Z,18.1
2022-08-04T02:45:57.591Z,18.1
2022-08-04T02:46:57.613Z,18.1
2022-08-04T02:48:08.607Z,18.1
2022-08-04T02:48:57.655Z,18
2022-08-04T02:49:57.596Z,18
2022-08-04T02:50:57.603Z,18
2022-08-04T02:51:57.790Z,18
2022-08-04T02:52:57.777Z,18
2022-08-04T02:53:57.766Z,18
2022-08-04T02:54:57.716Z,18
2022-08-04T02:55:57.773Z,18
2022-08-04T02:56:57.803Z,18
2022-08-04T02:57:57.622Z,18
2022-08-04T02:58:57.620Z,18
2022-08-04T02:59:57.698Z,18
2022-08-04T03:00:57.641Z,18
2022-08-04T03:01:58.323Z,18
2022-08-04T03:02:57.593Z,18
2022-08-04T03:03:57.604Z,18
2022-08-04T03:04:57.629Z,18
2022-08-04T03:06:00.699Z,18
2022-08-04T03:06:57.591Z,18
2022-08-04T03:07:57.603Z,18
2022-08-04T03:08:57.604Z,18
2022-08-04T03:09:57.848Z,18
2022-08-04T03:10:57.597Z,18
2022-08-04T03:11:57.589Z,18
2022-08-04T03:12:58.966Z,18
2022-08-04T03:13:57.605Z,18
2022-08-04T03:14:57.592Z,17.9
2022-08-04T03:15:57.593Z,17.9
2022-08-04T03:16:57.583Z,17.9
2022-08-04T03:17:57.606Z,17.9
2022-08-04T03:18:57.598Z,17.9
2022-08-04T03:19:57.582Z,17.9
2022-08-04T03:20:57.853Z,17.8
2022-08-04T03:21:57.583Z,17.8
2022-08-04T03:23:12.845Z,17.8
2022-08-04T03:23:57.691Z,17.8
2022-08-04T03:24:57.576Z,17.8
2022-08-04T03:25:57.952Z,17.8
2022-08-04T03:26:57.980Z,17.8
2022-08-04T03:27:58.112Z,17.7
2022-08-04T03:28:58.275Z,17.7
2022-08-04T03:29:57.601Z,17.7
2022-08-04T03:30:57.607Z,17.7
2022-08-04T03:31:57.637Z,17.7
2022-08-04T03:32:57.588Z,17.7
2022-08-04T03:33:57.591Z,17.7
2022-08-04T03:34:57.593Z,17.7
2022-08-04T03:35:57.597Z,17.6
2022-08-04T03:36:57.601Z,17.6
2022-08-04T03:37:57.599Z,17.6
2022-08-04T03:38:57.652Z,17.6
2022-08-04T03:39:57.657Z,17.5
2022-08-04T03:40:57.561Z,17.5
2022-08-04T03:42:03.783Z,17.5
2022-08-04T03:42:57.561Z,17.5
2022-08-04T03:43:59.861Z,17.5
2022-08-04T03:44:57.574Z,17.5
2022-08-04T03:45:57.578Z,17.5
2022-08-04T03:46:57.877Z,17.4
2022-08-04T03:47:58.087Z,17.4
2022-08-04T03:48:57.937Z,17.4
2022-08-04T03:49:57.600Z,17.4
2022-08-04T03:50:57.710Z,17.4
2022-08-04T03:51:57.938Z,17.4
2022-08-04T03:52:57.705Z,17.4
2022-08-04T03:53:57.593Z,17.4
2022-08-04T03:54:57.607Z,17.5
2022-08-04T03:55:57.594Z,17.4
2022-08-04T03:56:57.552Z,17.5
2022-08-04T03:57:57.638Z,17.5
2022-08-04T03:58:57.593Z,17.5
2022-08-04T03:59:57.680Z,17.5
2022-08-04T04:00:57.589Z,17.5
2022-08-04T04:01:57.882Z,17.5
2022-08-04T04:02:57.660Z,17.5
2022-08-04T04:03:57.611Z,17.5
2022-08-04T04:04:57.593Z,17.5
2022-08-04T04:05:59.202Z,17.5
2022-08-04T04:06:57.569Z,17.5
2022-08-04T04:07:59.824Z,17.5
2022-08-04T04:08:58.578Z,17.5
2022-08-04T04:10:01.226Z,17.5
2022-08-04T04:10:57.670Z,17.5
2022-08-04T04:11:58.171Z,17.5
2022-08-04T04:12:57.984Z,17.5
2022-08-04T04:13:57.584Z,17.6
2022-08-04T04:14:57.582Z,17.5
2022-08-04T04:15:57.649Z,17.6
2022-08-04T04:16:57.633Z,17.6
2022-08-04T04:17:57.722Z,17.6
2022-08-04T04:18:57.642Z,17.6
2022-08-04T04:19:58.419Z,17.6
2022-08-04T04:20:58.145Z,17.6
2022-08-04T04:21:57.996Z,17.6
2022-08-04T04:22:57.637Z,17.6
2022-08-04T04:23:57.622Z,17.6
2022-08-04T04:24:57.625Z,17.6
2022-08-04T04:25:57.899Z,17.7
2022-08-04T04:26:57.600Z,17.7
2022-08-04T04:27:57.618Z,17.7
2022-08-04T04:29:00.485Z,17.7
2022-08-04T04:29:57.598Z,17.7
2022-08-04T04:30:57.613Z,17.7
2022-08-04T04:31:57.611Z,17.8
2022-08-04T04:32:57.627Z,17.8
2022-08-04T04:33:57.625Z,17.8
2022-08-04T04:34:57.739Z,17.8
2022-08-04T04:35:57.607Z,17.8
2022-08-04T04:36:57.603Z,17.8
2022-08-04T04:37:57.595Z,17.8
2022-08-04T04:38:57.751Z,17.9
2022-08-04T04:39:57.600Z,17.9
2022-08-04T04:40:57.599Z,17.9
2022-08-04T04:41:57.604Z,17.9
2022-08-04T04:42:57.629Z,18
2022-08-04T04:43:57.604Z,18
2022-08-04T04:44:57.578Z,18
2022-08-04T04:45:57.587Z,18
2022-08-04T04:46:57.593Z,18.1
2022-08-04T04:48:07.902Z,18.1
2022-08-04T04:48:57.593Z,18.1
2022-08-04T04:49:57.599Z,18.2
2022-08-04T04:50:57.609Z,18.2
2022-08-04T04:51:57.599Z,18.2
2022-08-04T04:52:57.603Z,18.3
2022-08-04T04:54:00.351Z,18.3
2022-08-04T04:54:57.605Z,18.4
2022-08-04T04:55:57.846Z,18.5
2022-08-04T04:56:57.594Z,18.7
2022-08-04T04:57:57.607Z,18.9
2022-08-04T04:58:57.596Z,19
2022-08-04T04:59:57.601Z,19.1
2022-08-04T05:00:57.588Z,19.2
2022-08-04T05:01:57.600Z,19.2
2022-08-04T05:03:00.493Z,19.3
2022-08-04T05:03:57.605Z,19.3
2022-08-04T05:04:57.610Z,19.4
2022-08-04T05:05:57.619Z,19.5
2022-08-04T05:06:57.750Z,19.5
2022-08-04T05:07:57.594Z,19.5
2022-08-04T05:08:57.611Z,19.5
2022-08-04T05:09:57.628Z,19.5
2022-08-04T05:10:57.597Z,19.5
2022-08-04T05:11:57.599Z,19.5
2022-08-04T05:14:31.014Z,19.5
2022-08-04T05:14:33.969Z,19.5
2022-08-04T05:14:57.621Z,19.5
2022-08-04T05:15:57.618Z,19.5
2022-08-04T05:16:57.637Z,19.5
2022-08-04T05:17:57.868Z,19.4
2022-08-04T05:18:57.595Z,19.4
2022-08-04T05:19:57.616Z,19.4
2022-08-04T05:20:57.586Z,19.4
2022-08-04T05:21:57.585Z,19.5
2022-08-04T05:22:57.603Z,19.4
2022-08-04T05:23:57.607Z,19.4
2022-08-04T05:24:57.600Z,19.4
2022-08-04T05:25:59.069Z,19.5
2022-08-04T05:26:57.650Z,19.5
2022-08-04T05:27:57.812Z,19.5
2022-08-04T05:28:57.594Z,19.5
2022-08-04T05:29:57.610Z,19.5
2022-08-04T05:30:57.583Z,19.7
2022-08-04T05:31:57.595Z,19.7
2022-08-04T05:32:59.123Z,19.7
2022-08-04T05:33:57.603Z,19.7
2022-08-04T05:34:57.614Z,19.7
2022-08-04T05:36:20.980Z,19.7
2022-08-04T05:36:57.586Z,19.8
2022-08-04T05:38:01.081Z,19.8
2022-08-04T05:38:57.677Z,19.8
2022-08-04T05:39:57.593Z,19.8
2022-08-04T05:40:57.702Z,19.8
2022-08-04T05:41:58.507Z,19.9
2022-08-04T05:42:57.753Z,19.9
2022-08-04T05:43:57.996Z,20
2022-08-04T05:44:57.620Z,20
2022-08-04T05:45:57.788Z,20
2022-08-04T05:46:57.607Z,20.1
2022-08-04T05:47:57.616Z,20.2
2022-08-04T05:48:57.702Z,20.2
2022-08-04T05:50:01.770Z,20.2
2022-08-04T05:51:00.682Z,20.3
2022-08-04T05:51:57.606Z,20.5
2022-08-04T05:52:58.020Z,20.5
2022-08-04T05:53:57.600Z,20.6
2022-08-04T05:54:57.607Z,20.6
2022-08-04T05:55:59.425Z,20.7
2022-08-04T05:56:57.598Z,20.7
2022-08-04T05:57:57.604Z,20.8
2022-08-04T05:58:57.607Z,20.9
2022-08-04T05:59:57.639Z,20.9
2022-08-04T06:00:57.589Z,21
2022-08-04T06:01:57.973Z,21
2022-08-04T06:02:57.633Z,21.2
2022-08-04T06:03:57.591Z,21.2
2022-08-04T06:04:57.585Z,21.3
2022-08-04T06:05:57.607Z,21.3
2022-08-04T06:06:57.593Z,21.4
2022-08-04T06:08:04.811Z,21.4
2022-08-04T06:08:57.598Z,21.5
2022-08-04T06:09:57.613Z,21.5
2022-08-04T06:10:57.633Z,21.6
2022-08-04T06:11:59.289Z,21.6
2022-08-04T06:12:57.593Z,21.8
2022-08-04T06:13:57.575Z,21.9
2022-08-04T06:14:57.819Z,21.9
2022-08-04T06:15:57.597Z,22
2022-08-04T06:16:57.587Z,22.1
2022-08-04T06:18:32.566Z,22.1
2022-08-04T06:20:01.747Z,22.3
2022-08-04T06:20:04.457Z,22.4
2022-08-04T06:20:57.608Z,22.4
2022-08-04T06:21:57.649Z,22.5
2022-08-04T06:22:57.595Z,22.5
2022-08-04T06:23:59.598Z,22.5
2022-08-04T06:24:57.596Z,22.6
2022-08-04T06:25:57.594Z,22.6
2022-08-04T06:26:57.596Z,22.6
2022-08-04T06:27:57.610Z,22.7
2022-08-04T06:28:57.597Z,22.7
2022-08-04T06:29:57.604Z,22.7
2022-08-04T06:30:57.623Z,22.7
2022-08-04T06:32:26.619Z,22.7
2022-08-04T06:33:03.282Z,22.7
2022-08-04T06:33:57.610Z,22.9
2022-08-04T06:34:57.568Z,22.9
2022-08-04T06:35:57.791Z,22.9
2022-08-04T06:36:57.974Z,22.9
2022-08-04T06:38:02.068Z,22.9
2022-08-04T06:38:58.946Z,23
2022-08-04T06:39:58.980Z,23
2022-08-04T06:40:58.454Z,23
2022-08-04T06:42:02.491Z,23.1
2022-08-04T06:42:57.607Z,23.1
2022-08-04T06:43:57.574Z,23.1
2022-08-04T06:44:57.604Z,23.1
2022-08-04T06:45:57.604Z,23.2
2022-08-04T06:46:57.606Z,23.2
2022-08-04T06:47:57.586Z,23.2
2022-08-04T06:48:57.591Z,23.2
2022-08-04T06:51:23.811Z,23.4
2022-08-04T06:51:28.880Z,23.4
2022-08-04T06:51:57.597Z,23.4
2022-08-04T06:52:57.623Z,23.5
2022-08-04T06:53:57.598Z,23.5
2022-08-04T06:54:57.605Z,23.5
2022-08-04T06:55:57.613Z,23.6
2022-08-04T06:56:57.598Z,23.6
2022-08-04T06:58:02.475Z,23.6
2022-08-04T06:58:57.615Z,23.8
2022-08-04T06:59:57.603Z,23.8
2022-08-04T07:00:57.607Z,23.8
2022-08-04T07:01:57.629Z,23.9
2022-08-04T07:02:57.613Z,23.9
2022-08-04T07:03:57.607Z,23.9
2022-08-04T07:04:57.631Z,23.9
2022-08-04T07:05:57.593Z,24
2022-08-04T07:06:57.591Z,24
2022-08-04T07:07:58.695Z,24
2022-08-04T07:08:57.600Z,24
2022-08-04T07:09:57.605Z,24.1
2022-08-04T07:10:57.626Z,24.1
2022-08-04T07:11:57.600Z,24.3
2022-08-04T07:12:57.612Z,24.3
2022-08-04T07:13:57.603Z,24.3
2022-08-04T07:14:57.618Z,24.4
2022-08-04T07:15:57.584Z,24.5
2022-08-04T07:16:57.604Z,24.5
2022-08-04T07:17:57.599Z,24.5
2022-08-04T07:18:57.601Z,24.7
2022-08-04T07:19:57.618Z,24.7
2022-08-04T07:20:57.587Z,24.8
2022-08-04T07:22:16.878Z,24.8
2022-08-04T07:22:57.622Z,24.9
2022-08-04T07:23:57.689Z,24.9
2022-08-04T07:24:57.576Z,25.1
2022-08-04T07:26:01.250Z,25.1
2022-08-04T07:26:57.953Z,25.2
2022-08-04T07:27:57.711Z,25.3
2022-08-04T07:28:57.605Z,25.3
2022-08-04T07:29:57.757Z,25.5
2022-08-04T07:30:57.855Z,25.5
2022-08-04T07:31:58.360Z,25.6
2022-08-04T07:32:57.876Z,25.6
2022-08-04T07:34:17.502Z,25.7
2022-08-04T07:34:57.675Z,25.7
2022-08-04T07:36:06.250Z,25.9
2022-08-04T07:36:57.817Z,25.9
2022-08-04T07:37:57.594Z,26
2022-08-04T07:38:57.645Z,26
2022-08-04T07:39:57.654Z,26.1
2022-08-04T07:40:57.632Z,26.1
2022-08-04T07:41:57.627Z,26.3
2022-08-04T07:42:57.594Z,26.3
2022-08-04T07:43:57.575Z,26.4
2022-08-04T07:44:57.590Z,26.4
2022-08-04T07:45:57.607Z,26.6
2022-08-04T07:46:57.625Z,26.6
2022-08-04T07:48:04.539Z,26.7
2022-08-04T07:48:57.606Z,26.7
2022-08-04T07:49:58.072Z,26.7
2022-08-04T07:50:57.614Z,26.9
2022-08-04T07:51:57.624Z,26.9
2022-08-04T07:53:15.557Z,27
2022-08-04T07:53:57.599Z,27
2022-08-04T07:54:57.597Z,27.1
2022-08-04T07:55:57.619Z,27.3
2022-08-04T07:56:57.594Z,27.3
2022-08-04T07:57:57.608Z,27.3
2022-08-04T07:58:57.635Z,27.4
2022-08-04T07:59:57.606Z,27.6
2022-08-04T08:00:57.629Z,27.6
2022-08-04T08:01:57.623Z,27.7
2022-08-04T08:02:57.838Z,27.9
2022-08-04T08:03:57.665Z,27.9
2022-08-04T08:04:57.586Z,27.9
2022-08-04T08:06:18.407Z,28.1
2022-08-04T08:06:57.596Z,28.1
2022-08-04T08:07:57.602Z,28.3
2022-08-04T08:08:57.605Z,28.3
2022-08-04T08:09:57.593Z,28.4
2022-08-04T08:10:57.599Z,28.6
2022-08-04T08:12:34.533Z,28.6
2022-08-04T08:12:57.591Z,28.9
2022-08-04T08:13:57.589Z,28.9
2022-08-04T08:14:57.594Z,29
2022-08-04T08:15:57.786Z,29.2
2022-08-04T08:16:57.587Z,29.2
2022-08-04T08:17:59.271Z,29.3
2022-08-04T08:18:57.588Z,29.5
2022-08-04T08:19:57.590Z,29.7
2022-08-04T08:20:57.611Z,29.7
2022-08-04T08:21:58.804Z,29.8
2022-08-04T08:22:57.598Z,29.8
2022-08-04T08:23:57.599Z,30
2022-08-04T08:24:57.602Z,30
2022-08-04T08:25:57.601Z,30.1
2022-08-04T08:26:57.589Z,30.1
2022-08-04T08:27:57.622Z,30.1
2022-08-04T08:28:57.593Z,30.3
2022-08-04T08:29:57.589Z,30.3
2022-08-04T08:30:59.064Z,30.4
2022-08-04T08:32:00.398Z,30.4
2022-08-04T08:32:57.599Z,30.6
2022-08-04T08:33:57.563Z,30.6
2022-08-04T08:34:57.582Z,30.7
2022-08-04T08:35:57.668Z,30.7
2022-08-04T08:36:57.552Z,30.9
2022-08-04T08:37:57.906Z,30.9
2022-08-04T08:38:57.601Z,30.9
2022-08-04T08:39:57.677Z,31
2022-08-04T08:40:57.551Z,31
2022-08-04T08:41:57.737Z,31.2
2022-08-04T08:42:58.124Z,31.2
2022-08-04T08:44:00.891Z,31.2
2022-08-04T08:44:58.209Z,31.3
2022-08-04T08:45:57.617Z,31.3
2022-08-04T08:46:57.896Z,31.3
2022-08-04T08:47:58.534Z,31.3
2022-08-04T08:48:57.808Z,31.3
2022-08-04T08:50:01.405Z,31.5
2022-08-04T08:50:57.591Z,31.5
2022-08-04T08:51:57.555Z,31.5
2022-08-04T08:53:01.862Z,31.5
2022-08-04T08:53:58.056Z,31.6
2022-08-04T08:54:57.569Z,31.6
2022-08-04T08:55:57.696Z,31.6
2022-08-04T08:56:57.695Z,31.6
2022-08-04T08:57:59.693Z,31.6
2022-08-04T08:58:57.559Z,31.8
2022-08-04T08:59:57.797Z,31.8
2022-08-04T09:00:58.030Z,31.8
2022-08-04T09:01:57.640Z,31.8
2022-08-04T09:03:04.320Z,31.9
2022-08-04T09:03:57.593Z,31.9
2022-08-04T09:04:57.583Z,31.9
2022-08-04T09:05:57.592Z,31.9
2022-08-04T09:06:57.593Z,32.1
2022-08-04T09:07:57.599Z,32.1
2022-08-04T09:08:57.583Z,32.1
2022-08-04T09:09:57.593Z,32.3
2022-08-04T09:10:57.598Z,32.3
2022-08-04T09:11:57.591Z,32.3
2022-08-04T09:12:57.617Z,32.4
2022-08-04T09:13:57.603Z,32.4
2022-08-04T09:14:57.736Z,32.4
2022-08-04T09:15:57.599Z,32.4
2022-08-04T09:16:57.593Z,32.6
2022-08-04T09:17:57.596Z,32.6
2022-08-04T09:18:57.593Z,32.6
2022-08-04T09:19:57.595Z,32.6
2022-08-04T09:20:57.600Z,32.6
2022-08-04T09:21:57.622Z,32.6
2022-08-04T09:22:57.607Z,32.7
2022-08-04T09:23:57.608Z,32.7
2022-08-04T09:24:57.607Z,32.7
2022-08-04T09:25:57.594Z,32.9
2022-08-04T09:26:59.698Z,32.9
2022-08-04T09:27:57.593Z,32.9
2022-08-04T09:28:57.605Z,32.9
2022-08-04T09:29:57.594Z,32.9
2022-08-04T09:30:57.607Z,33.1
2022-08-04T09:32:06.513Z,33.1
2022-08-04T09:32:57.595Z,33.1
2022-08-04T09:33:57.611Z,33.1
2022-08-04T09:35:02.144Z,33.1
2022-08-04T09:35:57.584Z,33.2
2022-08-04T09:36:57.588Z,33.2
2022-08-04T09:37:57.602Z,33.2
2022-08-04T09:38:57.630Z,33.2
2022-08-04T09:39:57.602Z,33.2
2022-08-04T09:40:59.594Z,33.4
2022-08-04T09:41:57.609Z,33.4
2022-08-04T09:42:57.598Z,33.4
2022-08-04T09:44:43.262Z,33.4
2022-08-04T09:45:02.739Z,33.4
2022-08-04T09:45:58.285Z,33.6
2022-08-04T09:46:59.870Z,33.6
2022-08-04T09:47:58.539Z,33.6
2022-08-04T09:48:58.912Z,33.6
2022-08-04T09:49:58.230Z,33.6
2022-08-04T09:50:57.596Z,33.6
2022-08-04T09:51:59.503Z,33.6
2022-08-04T09:52:57.585Z,33.7
2022-08-04T09:53:57.619Z,33.7
2022-08-04T09:54:57.608Z,33.7
2022-08-04T09:56:01.151Z,33.7
2022-08-04T09:56:57.603Z,33.7
2022-08-04T09:57:57.599Z,33.7
2022-08-04T09:58:57.598Z,33.7
2022-08-04T09:59:57.609Z,33.9
2022-08-04T10:00:57.601Z,33.9
2022-08-04T10:01:58.821Z,33.9
2022-08-04T10:02:57.634Z,33.9
2022-08-04T10:03:57.597Z,33.9
2022-08-04T10:04:57.633Z,33.9
2022-08-04T10:05:57.609Z,33.9
2022-08-04T10:06:57.613Z,33.9
2022-08-04T10:07:59.415Z,33.9
2022-08-04T10:08:57.595Z,34.1
2022-08-04T10:09:57.654Z,34.1
2022-08-04T10:10:57.593Z,34.1
2022-08-04T10:11:57.615Z,34.1
2022-08-04T10:12:57.597Z,34.1
2022-08-04T10:13:57.595Z,34.1
2022-08-04T10:14:57.612Z,34.1
2022-08-04T10:15:57.605Z,34.1
2022-08-04T10:16:57.599Z,34.1
2022-08-04T10:17:57.603Z,34.1
2022-08-04T10:18:57.602Z,34.1
2022-08-04T10:19:57.605Z,34.1
2022-08-04T10:21:00.170Z,34.1
2022-08-04T10:21:59.796Z,34.1
2022-08-04T10:23:10.932Z,34.1
2022-08-04T10:24:00.252Z,34.1
2022-08-04T10:24:57.618Z,34.1
2022-08-04T10:26:06.722Z,34.2
2022-08-04T10:26:58.254Z,34.1
2022-08-04T10:27:57.643Z,34.2
2022-08-04T10:28:57.610Z,34.2
2022-08-04T10:29:57.614Z,34.2
2022-08-04T10:30:57.584Z,34.2
2022-08-04T10:31:57.595Z,34.2
2022-08-04T10:32:57.554Z,34.4
2022-08-04T10:33:57.690Z,34.4
2022-08-04T10:34:57.565Z,34.4
2022-08-04T10:35:57.569Z,34.4
2022-08-04T10:36:57.659Z,34.4
2022-08-04T10:38:00.948Z,34.4
2022-08-04T10:38:58.090Z,34.4
2022-08-04T10:39:57.719Z,34.4
2022-08-04T10:40:57.885Z,34.4
2022-08-04T10:41:59.672Z,34.4
2022-08-04T10:42:57.708Z,34.4
2022-08-04T10:43:57.581Z,34.6
2022-08-04T10:44:58.024Z,34.6
2022-08-04T10:45:58.336Z,34.6
2022-08-04T10:46:58.012Z,34.6
2022-08-04T10:47:57.601Z,34.6
2022-08-04T10:48:57.710Z,34.6
2022-08-04T10:49:57.927Z,34.6
2022-08-04T10:50:57.602Z,34.6
2022-08-04T10:51:59.438Z,34.7
2022-08-04T10:52:57.600Z,34.7
2022-08-04T10:53:57.602Z,34.6
2022-08-04T10:54:57.604Z,34.6
2022-08-04T10:56:05.773Z,34.7
2022-08-04T10:56:57.595Z,34.7
2022-08-04T10:57:57.614Z,34.7
2022-08-04T10:58:57.616Z,34.7
2022-08-04T10:59:59.117Z,34.7
2022-08-04T11:00:57.610Z,34.7
2022-08-04T11:02:02.187Z,34.9
2022-08-04T11:02:57.706Z,34.9
2022-08-04T11:03:57.594Z,34.9
2022-08-04T11:04:57.591Z,34.9
2022-08-04T11:05:57.597Z,34.9
2022-08-04T11:06:57.619Z,34.9
2022-08-04T11:07:57.640Z,34.9
2022-08-04T11:08:57.604Z,34.9
2022-08-04T11:09:57.736Z,34.9
2022-08-04T11:10:57.606Z,34.9
2022-08-04T11:12:00.333Z,35.1
2022-08-04T11:12:57.621Z,35.1
2022-08-04T11:13:57.596Z,35.1
2022-08-04T11:14:57.622Z,35.1
2022-08-04T11:15:57.618Z,35.1
2022-08-04T11:16:57.592Z,35.1
2022-08-04T11:17:57.634Z,35.1
2022-08-04T11:18:57.602Z,35.1
2022-08-04T11:20:07.636Z,35.1
2022-08-04T11:20:57.606Z,35.1
2022-08-04T11:21:57.607Z,35.3
2022-08-04T11:22:57.622Z,35.3
2022-08-04T11:23:57.604Z,35.3
2022-08-04T11:24:57.597Z,35.3
2022-08-04T11:25:57.591Z,35.3
2022-08-04T11:26:57.650Z,35.3
2022-08-04T11:27:57.606Z,35.3
2022-08-04T11:28:59.396Z,35.3
2022-08-04T11:29:57.604Z,35.3
2022-08-04T11:30:57.624Z,35.3
2022-08-04T11:31:57.634Z,35.4
2022-08-04T11:32:57.631Z,35.4
2022-08-04T11:33:57.600Z,35.4
2022-08-04T11:34:57.591Z,35.6
2022-08-04T11:35:57.585Z,35.6
2022-08-04T11:36:57.592Z,35.8
2022-08-04T11:37:57.654Z,35.8
2022-08-04T11:38:57.703Z,35.8
2022-08-04T11:39:57.561Z,35.8
2022-08-04T11:41:02.933Z,36
2022-08-04T11:41:57.674Z,36
2022-08-04T11:42:57.628Z,36
2022-08-04T11:44:01.506Z,36
2022-08-04T11:44:57.557Z,36
2022-08-04T11:45:57.624Z,36.1
2022-08-04T11:46:57.768Z,36.1
2022-08-04T11:47:58.003Z,36.1
2022-08-04T11:48:57.622Z,36.1
2022-08-04T11:49:58.303Z,36.1
2022-08-04T11:50:57.622Z,36.1
2022-08-04T11:51:57.924Z,36
2022-08-04T11:52:58.596Z,36
2022-08-04T11:53:57.863Z,36
2022-08-04T11:54:57.595Z,35.8
2022-08-04T11:56:07.259Z,36
2022-08-04T11:56:57.617Z,35.8
2022-08-04T11:57:57.595Z,35.8
2022-08-04T11:58:57.606Z,35.8
2022-08-04T11:59:57.602Z,35.8
2022-08-04T12:00:57.596Z,35.8
2022-08-04T12:01:57.638Z,35.8
2022-08-04T12:02:57.854Z,35.8
2022-08-04T12:03:59.614Z,35.8
2022-08-04T12:04:57.562Z,35.8
2022-08-04T12:05:57.664Z,35.8
2022-08-04T12:07:09.739Z,35.6
2022-08-04T12:07:57.593Z,35.6
2022-08-04T12:08:57.592Z,35.6
2022-08-04T12:09:57.814Z,35.6
2022-08-04T12:10:57.948Z,35.6
2022-08-04T12:11:57.557Z,35.6
2022-08-04T12:12:58.565Z,35.6
2022-08-04T12:14:00.667Z,35.8
2022-08-04T12:14:57.705Z,35.8
2022-08-04T12:15:57.897Z,35.8
2022-08-04T12:16:57.612Z,35.8
2022-08-04T12:17:57.581Z,35.8
2022-08-04T12:18:57.589Z,35.8
2022-08-04T12:20:03.151Z,36
2022-08-04T12:20:57.618Z,35.8
2022-08-04T12:21:57.615Z,35.8
2022-08-04T12:22:57.618Z,35.8
2022-08-04T12:24:00.473Z,35.8
2022-08-04T12:24:57.599Z,35.8
2022-08-04T12:25:57.602Z,35.8
2022-08-04T12:26:57.601Z,35.8
2022-08-04T12:27:57.604Z,35.8
2022-08-04T12:29:09.858Z,35.8
2022-08-04T12:30:57.607Z,35.8
2022-08-04T12:31:02.381Z,36
2022-08-04T12:31:57.592Z,36
2022-08-04T12:32:57.619Z,36.1
2022-08-04T12:34:03.230Z,36.1
2022-08-04T12:34:57.804Z,36.3
2022-08-04T12:36:10.176Z,36.3
2022-08-04T12:36:57.605Z,36.5
2022-08-04T12:37:57.595Z,36.5
2022-08-04T12:38:57.697Z,36.5
2022-08-04T12:40:27.961Z,36.5
2022-08-04T12:40:57.594Z,36.5
2022-08-04T12:41:57.613Z,36.5
2022-08-04T12:42:59.650Z,36.5
2022-08-04T12:43:57.718Z,36.7
2022-08-04T12:44:57.594Z,36.7
2022-08-04T12:45:57.595Z,36.7
2022-08-04T12:47:27.961Z,36.7
2022-08-04T12:47:57.594Z,36.7
2022-08-04T12:48:57.582Z,36.9
2022-08-04T12:50:00.491Z,36.7
2022-08-04T12:50:57.593Z,36.7
2022-08-04T12:52:05.987Z,36.9
2022-08-04T12:53:02.439Z,36.7
2022-08-04T12:53:57.612Z,36.7
2022-08-04T12:54:57.614Z,36.7
2022-08-04T12:56:01.273Z,36.7
2022-08-04T12:56:57.615Z,36.7
2022-08-04T12:57:57.613Z,36.7
2022-08-04T12:58:57.588Z,36.7
2022-08-04T12:59:58.039Z,36.7
2022-08-04T13:00:57.646Z,36.9
2022-08-04T13:02:07.774Z,36.7
2022-08-04T13:02:57.578Z,36.7
2022-08-04T13:03:57.642Z,36.7
2022-08-04T13:04:57.608Z,36.5
2022-08-04T13:05:57.836Z,36.5
2022-08-04T13:06:57.600Z,36.3
2022-08-04T13:07:57.602Z,36.1
2022-08-04T13:08:57.600Z,36.1
2022-08-04T13:09:57.601Z,36
2022-08-04T13:10:57.601Z,36
2022-08-04T13:11:57.594Z,36
2022-08-04T13:12:57.602Z,36
2022-08-04T13:14:17.488Z,35.8
2022-08-04T13:14:57.611Z,35.8
2022-08-04T13:15:57.972Z,35.8
2022-08-04T13:16:57.610Z,35.8
2022-08-04T13:17:59.242Z,35.6
2022-08-04T13:18:57.602Z,35.6
2022-08-04T13:19:57.603Z,35.4
2022-08-04T13:20:57.618Z,35.4
2022-08-04T13:22:02.370Z,35.3
2022-08-04T13:22:57.606Z,35.3
2022-08-04T13:24:09.711Z,35.3